createdAt,value
2022-12-20T00:01:59.713Z,4.97
2022-12-20T00:04:26.657Z,4.82
2022-12-20T00:06:53.702Z,4.88
2022-12-20T00:09:20.763Z,5.57
2022-12-20T00:11:47.867Z,4.93
2022-12-20T00:14:14.810Z,5.20
2022-12-20T00:16:41.699Z,4.85
2022-12-20T00:19:11.086Z,5.22
2022-12-20T00:21:38.403Z,5.60
2022-12-20T00:24:06.606Z,5.13
2022-12-20T00:26:35.361Z,5.80
2022-12-20T00:29:02.631Z,5.72
2022-12-20T00:31:30.634Z,5.45
2022-12-20T00:33:59.076Z,5.43
2022-12-20T00:36:27.968Z,5.50
2022-12-20T00:38:56.823Z,5.15
2022-12-20T00:41:29.895Z,4.88
2022-12-20T00:43:57.032Z,5.30
2022-12-20T00:46:25.111Z,5.00
2022-12-20T00:48:53.466Z,5.70
2022-12-20T00:51:24.057Z,5.20
2022-12-20T00:53:51.127Z,4.88
2022-12-20T00:56:19.013Z,5.43
2022-12-20T00:58:46.091Z,4.97
2022-12-20T01:01:31.981Z,5.57
2022-12-20T01:03:59.905Z,4.53
2022-12-20T01:06:30.805Z,4.38
2022-12-20T01:08:58.920Z,4.95
2022-12-20T01:11:29.495Z,4.57
2022-12-20T01:13:59.857Z,4.15
2022-12-20T01:16:32.819Z,4.53
2022-12-20T01:19:00.589Z,4.45
2022-12-20T01:21:28.154Z,5.05
2022-12-20T01:23:55.562Z,3.97
2022-12-20T01:26:25.480Z,4.47
2022-12-20T01:28:54.850Z,4.25
2022-12-20T01:31:22.194Z,4.60
2022-12-20T01:33:50.359Z,4.25
2022-12-20T01:36:26.768Z,5.00
2022-12-20T01:39:05.213Z,4.82
2022-12-20T01:41:33.494Z,4.55
2022-12-20T01:44:05.673Z,4.18
2022-12-20T01:46:39.740Z,4.97
2022-12-20T01:49:10.923Z,4.35
2022-12-20T01:51:43.549Z,4.85
2022-12-20T01:54:47.975Z,4.32
2022-12-20T01:57:41.171Z,3.88
2022-12-20T02:00:09.942Z,3.78
2022-12-20T02:02:37.417Z,3.95
2022-12-20T02:05:05.305Z,4.30
2022-12-20T02:07:35.281Z,3.63
2022-12-20T02:10:02.933Z,4.13
2022-12-20T02:12:45.157Z,3.60
2022-12-20T02:15:27.463Z,4.28
2022-12-20T02:18:19.115Z,3.65
2022-12-20T02:20:55.563Z,3.70
2022-12-20T02:23:31.729Z,3.92
2022-12-20T02:26:17.354Z,4.32
2022-12-20T02:28:56.493Z,4.40
2022-12-20T02:31:33.190Z,3.80
2022-12-20T02:34:01.802Z,4.25
2022-12-20T02:36:29.060Z,3.83
2022-12-20T02:38:56.113Z,3.97
2022-12-20T02:41:28.080Z,3.55
2022-12-20T02:44:18.226Z,3.42
2022-12-20T02:46:47.422Z,3.80
2022-12-20T02:49:18.508Z,3.67
2022-12-20T02:51:49.392Z,3.95
2022-12-20T02:54:17.840Z,3.60
2022-12-20T02:57:00.236Z,4.30
2022-12-20T02:59:34.521Z,4.00
2022-12-20T03:02:02.709Z,3.38
2022-12-20T03:04:34.367Z,3.70
2022-12-20T03:07:05.490Z,3.90
2022-12-20T03:09:35.159Z,3.55
2022-12-20T03:12:03.465Z,3.40
2022-12-20T03:14:30.446Z,3.42
2022-12-20T03:16:57.634Z,3.30
2022-12-20T03:19:24.957Z,3.20
2022-12-20T03:21:52.948Z,3.22
2022-12-20T03:24:19.994Z,3.50
2022-12-20T03:26:47.150Z,3.63
2022-12-20T03:29:14.713Z,3.22
2022-12-20T03:31:41.804Z,3.65
2022-12-20T03:34:09.031Z,2.88
2022-12-20T03:36:36.003Z,3.30
2022-12-20T03:39:03.038Z,3.30
2022-12-20T03:41:30.208Z,3.20
2022-12-20T03:43:57.102Z,3.50
2022-12-20T03:46:24.349Z,2.92
2022-12-20T03:48:51.256Z,3.20
2022-12-20T03:51:18.196Z,2.97
2022-12-20T03:53:45.376Z,3.25
2022-12-20T03:56:12.543Z,3.30
2022-12-20T03:58:39.491Z,3.10
2022-12-20T04:01:19.913Z,2.78
2022-12-20T04:03:47.528Z,3.13
2022-12-20T04:06:15.007Z,3.20
2022-12-20T04:08:42.452Z,3.25
2022-12-20T04:11:18.447Z,3.13
2022-12-20T04:13:53.809Z,3.42
2022-12-20T04:16:25.378Z,3.38
2022-12-20T04:18:52.710Z,3.05
2022-12-20T04:21:29.445Z,3.15
2022-12-20T04:23:57.158Z,3.05
2022-12-20T04:26:24.848Z,2.95
2022-12-20T04:28:51.736Z,2.80
2022-12-20T04:31:23.800Z,3.20
2022-12-20T04:33:51.603Z,3.08
2022-12-20T04:36:18.685Z,3.03
2022-12-20T04:38:45.999Z,3.20
2022-12-20T04:41:22.798Z,3.47
2022-12-20T04:43:55.386Z,3.70
2022-12-20T04:46:23.521Z,3.30
2022-12-20T04:48:59.573Z,3.20
2022-12-20T04:51:28.042Z,2.58
2022-12-20T04:53:55.804Z,2.60
2022-12-20T04:56:29.126Z,2.95
2022-12-20T04:58:57.701Z,2.90
2022-12-20T05:01:25.113Z,3.08
2022-12-20T05:03:52.427Z,3.25
2022-12-20T05:06:19.306Z,3.25
2022-12-20T05:08:46.246Z,3.10
2022-12-20T05:11:13.369Z,3.28
2022-12-20T05:13:40.633Z,2.90
2022-12-20T05:16:07.882Z,3.17
2022-12-20T05:18:35.045Z,2.92
2022-12-20T05:21:21.025Z,2.70
2022-12-20T05:24:06.897Z,2.78
2022-12-20T05:26:36.632Z,2.50
2022-12-20T05:29:05.637Z,2.72
2022-12-20T05:31:33.019Z,2.72
2022-12-20T05:34:00.438Z,3.50
2022-12-20T05:36:27.448Z,3.03
2022-12-20T05:38:58.197Z,2.72
2022-12-20T05:41:30.550Z,2.50
2022-12-20T05:43:57.923Z,2.55
2022-12-20T05:46:25.203Z,2.60
2022-12-20T05:48:53.124Z,2.60
2022-12-20T05:51:20.175Z,2.65
2022-12-20T05:53:47.269Z,2.20
2022-12-20T05:56:14.078Z,2.92
2022-12-20T05:58:40.980Z,2.40
2022-12-20T06:01:09.276Z,2.25
2022-12-20T06:03:36.975Z,2.67
2022-12-20T06:06:10.214Z,2.47
2022-12-20T06:08:40.712Z,2.58
2022-12-20T06:11:07.810Z,2.60
2022-12-20T06:13:35.081Z,3.00
2022-12-20T06:16:01.996Z,3.08
2022-12-20T06:18:28.996Z,2.80
2022-12-20T06:20:56.044Z,2.58
2022-12-20T06:23:23.541Z,3.00
2022-12-20T06:25:50.727Z,3.10
2022-12-20T06:28:22.233Z,3.45
2022-12-20T06:30:57.124Z,2.80
2022-12-20T06:33:25.305Z,3.15
2022-12-20T06:35:53.031Z,2.85
2022-12-20T06:38:20.279Z,3.22
2022-12-20T06:40:47.287Z,2.88
2022-12-20T06:43:14.537Z,3.03
2022-12-20T06:45:42.453Z,2.97
2022-12-20T06:48:10.316Z,3.20
2022-12-20T06:50:38.704Z,2.72
2022-12-20T06:53:05.917Z,3.05
2022-12-20T06:55:33.024Z,2.92
2022-12-20T06:58:00.091Z,2.92
2022-12-20T07:00:27.538Z,2.97
2022-12-20T07:02:55.014Z,3.22
2022-12-20T07:05:22.077Z,3.53
2022-12-20T07:07:49.303Z,2.88
2022-12-20T07:10:16.593Z,3.05
2022-12-20T07:12:50.392Z,2.63
2022-12-20T07:15:17.426Z,3.38
2022-12-20T07:17:44.889Z,3.63
2022-12-20T07:20:13.984Z,2.78
2022-12-20T07:22:41.738Z,3.08
2022-12-20T07:25:09.410Z,2.90
2022-12-20T07:27:36.686Z,2.60
2022-12-20T07:30:05.441Z,2.80
2022-12-20T07:32:32.744Z,3.13
2022-12-20T07:34:59.750Z,2.83
2022-12-20T07:37:29.552Z,3.15
2022-12-20T07:39:56.674Z,2.83
2022-12-20T07:42:26.379Z,3.33
2022-12-20T07:44:58.766Z,2.75
2022-12-20T07:47:25.842Z,3.08
2022-12-20T07:49:52.808Z,2.88
2022-12-20T07:52:23.478Z,2.92
2022-12-20T07:54:56.060Z,3.30
2022-12-20T07:57:29.949Z,3.22
2022-12-20T07:59:59.321Z,2.83
2022-12-20T08:02:33.068Z,3.10
2022-12-20T08:05:00.738Z,3.22
2022-12-20T08:07:29.880Z,2.60
2022-12-20T08:09:56.983Z,3.38
2022-12-20T08:12:26.160Z,3.53
2022-12-20T08:14:56.510Z,3.80
2022-12-20T08:17:23.596Z,3.10
2022-12-20T08:19:52.190Z,3.47
2022-12-20T08:22:19.926Z,3.47
2022-12-20T08:24:47.250Z,3.58
2022-12-20T08:27:15.303Z,3.00
2022-12-20T08:29:43.203Z,3.30
2022-12-20T08:32:10.865Z,3.53
2022-12-20T08:34:37.726Z,3.13
2022-12-20T08:37:09.226Z,3.83
2022-12-20T08:39:41.576Z,4.50
2022-12-20T08:42:08.498Z,3.67
2022-12-20T08:44:35.402Z,3.83
2022-12-20T08:47:02.489Z,3.75
2022-12-20T08:49:29.609Z,3.40
2022-12-20T08:51:56.797Z,3.70
2022-12-20T08:54:23.794Z,3.63
2022-12-20T08:56:51.017Z,3.85
2022-12-20T08:59:18.237Z,4.03
2022-12-20T09:01:45.469Z,4.38
2022-12-20T09:04:13.052Z,3.83
2022-12-20T09:06:39.972Z,4.28
2022-12-20T09:09:07.407Z,3.92
2022-12-20T09:11:34.629Z,3.95
2022-12-20T09:14:01.540Z,3.70
2022-12-20T09:16:31.188Z,4.18
2022-12-20T09:19:05.097Z,3.97
2022-12-20T09:21:33.522Z,4.18
2022-12-20T09:24:00.529Z,4.38
2022-12-20T09:26:27.536Z,3.90
2022-12-20T09:28:54.509Z,4.20
2022-12-20T09:31:25.257Z,4.80
2022-12-20T09:33:58.115Z,4.53
2022-12-20T09:36:26.652Z,3.97
2022-12-20T09:38:55.175Z,4.10
2022-12-20T09:41:38.154Z,4.53
2022-12-20T09:44:28.539Z,4.25
2022-12-20T09:47:11.139Z,4.57
2022-12-20T09:49:42.097Z,4.50
2022-12-20T09:52:24.226Z,4.10
2022-12-20T09:55:25.378Z,4.05
2022-12-20T09:58:03.570Z,4.55
2022-12-20T10:00:35.210Z,4.82
2022-12-20T10:03:10.408Z,4.60
2022-12-20T10:05:47.378Z,3.85
2022-12-20T10:08:24.789Z,4.78
2022-12-20T10:11:05.454Z,4.20
2022-12-20T10:13:52.537Z,4.45
2022-12-20T10:16:42.840Z,4.10
2022-12-20T10:19:29.307Z,3.92
2022-12-20T10:22:18.041Z,4.10
2022-12-20T10:25:01.819Z,4.53
2022-12-20T10:27:29.285Z,4.38
2022-12-20T10:29:57.482Z,4.30
2022-12-20T10:32:24.523Z,4.10
2022-12-20T10:35:15.580Z,4.75
2022-12-20T10:38:09.966Z,5.72
2022-12-20T10:41:20.107Z,4.70
2022-12-20T10:43:44.540Z,4.97
2022-12-20T10:46:13.444Z,5.25
2022-12-20T10:48:42.768Z,4.50
2022-12-20T10:51:16.568Z,4.60
2022-12-20T10:53:58.216Z,4.38
2022-12-20T10:56:29.176Z,5.00
2022-12-20T10:59:15.477Z,4.63
2022-12-20T11:01:46.322Z,4.60
2022-12-20T11:04:38.876Z,5.10
2022-12-20T11:07:25.938Z,4.50
2022-12-20T11:09:56.936Z,4.60
2022-12-20T11:12:27.654Z,4.28
2022-12-20T11:15:21.606Z,4.35
2022-12-20T11:18:17.478Z,4.72
2022-12-20T11:20:58.738Z,4.30
2022-12-20T11:23:37.783Z,4.45
2022-12-20T11:26:13.649Z,4.60
2022-12-20T11:28:56.769Z,4.47
2022-12-20T11:31:52.174Z,4.65
2022-12-20T11:34:43.380Z,4.05
2022-12-20T11:37:22.346Z,4.70
2022-12-20T11:39:49.120Z,4.68
2022-12-20T11:42:22.038Z,4.63
2022-12-20T11:45:13.888Z,5.03
2022-12-20T11:48:17.233Z,4.40
2022-12-20T11:51:02.260Z,4.57
2022-12-20T11:54:03.845Z,4.80
2022-12-20T11:56:43.588Z,5.10
2022-12-20T11:59:23.776Z,5.20
2022-12-20T12:01:58.029Z,4.65
2022-12-20T12:04:32.661Z,5.30
2022-12-20T12:07:28.876Z,5.13
2022-12-20T12:10:23.069Z,5.28
2022-12-20T12:13:19.028Z,6.50
2022-12-20T12:16:27.476Z,5.72
2022-12-20T12:18:54.715Z,5.75
2022-12-20T12:21:28.711Z,5.20
2022-12-20T12:24:05.857Z,4.85
2022-12-20T12:26:41.827Z,4.80
2022-12-20T12:29:17.563Z,4.55
2022-12-20T12:31:56.917Z,5.13
2022-12-20T12:34:51.076Z,5.90
2022-12-20T12:37:50.054Z,6.00
2022-12-20T12:40:58.617Z,6.68
2022-12-20T12:43:49.082Z,5.90
2022-12-20T12:46:22.933Z,6.45
2022-12-20T12:49:06.690Z,6.15
2022-12-20T12:51:36.768Z,5.95
2022-12-20T12:54:23.640Z,5.63
2022-12-20T12:57:01.956Z,6.65
2022-12-20T12:59:34.553Z,6.20
2022-12-20T13:02:04.724Z,6.00
2022-12-20T13:04:56.220Z,5.82
2022-12-20T13:07:43.706Z,6.60
2022-12-20T13:10:19.345Z,6.22
2022-12-20T13:12:52.186Z,6.20
2022-12-20T13:15:22.785Z,6.10
2022-12-20T13:17:59.798Z,5.60
2022-12-20T13:20:28.338Z,6.30
2022-12-20T13:23:13.316Z,6.07
2022-12-20T13:25:43.747Z,6.05
2022-12-20T13:28:18.170Z,6.38
2022-12-20T13:30:48.006Z,7.22
2022-12-20T13:33:51.679Z,5.60
2022-12-20T13:36:35.191Z,6.40
2022-12-20T13:39:24.469Z,6.07
2022-12-20T13:42:23.036Z,5.75
2022-12-20T13:44:52.513Z,6.18
2022-12-20T13:47:36.863Z,6.85
2022-12-20T13:50:27.573Z,6.82
2022-12-20T13:52:54.888Z,6.68
2022-12-20T13:55:43.218Z,6.60
2022-12-20T13:58:47.284Z,7.28
2022-12-20T14:01:15.097Z,7.25
2022-12-20T14:03:45.776Z,6.80
2022-12-20T14:06:14.860Z,7.75
2022-12-20T14:08:48.336Z,7.03
2022-12-20T14:11:23.856Z,7.50
2022-12-20T14:13:59.550Z,7.65
2022-12-20T14:16:28.569Z,7.18
2022-12-20T14:19:05.781Z,7.97
2022-12-20T14:21:38.287Z,7.65
2022-12-20T14:24:06.707Z,7.97
2022-12-20T14:26:41.670Z,8.52
2022-12-20T14:29:16.391Z,8.35
2022-12-20T14:31:45.981Z,7.68
2022-12-20T14:34:19.003Z,8.20
2022-12-20T14:36:48.665Z,10.02
2022-12-20T14:39:29.793Z,11.55
2022-12-20T14:42:06.653Z,10.95
2022-12-20T14:44:35.073Z,9.95
2022-12-20T14:47:24.884Z,9.85
2022-12-20T14:49:57.602Z,8.70
2022-12-20T14:52:34.442Z,9.85
2022-12-20T14:55:10.592Z,9.18
2022-12-20T14:57:39.536Z,9.68
2022-12-20T15:00:12.489Z,10.30
2022-12-20T15:02:49.806Z,8.93
2022-12-20T15:05:35.858Z,9.15
2022-12-20T15:08:18.873Z,9.65
2022-12-20T15:11:08.638Z,9.95
2022-12-20T15:13:38.117Z,11.55
2022-12-20T15:16:18.464Z,11.55
2022-12-20T15:18:50.091Z,9.48
2022-12-20T15:21:26.286Z,9.77
2022-12-20T15:24:22.217Z,10.55
2022-12-20T15:27:03.449Z,11.63
2022-12-20T15:30:00.179Z,10.43
2022-12-20T15:32:38.720Z,10.93
2022-12-20T15:35:37.793Z,11.77
2022-12-20T15:38:41.267Z,11.68
2022-12-20T15:41:39.127Z,12.77
2022-12-20T15:44:23.380Z,11.30
2022-12-20T15:46:56.976Z,11.52
2022-12-20T15:49:37.764Z,11.43
2022-12-20T15:52:17.332Z,11.52
2022-12-20T15:54:47.062Z,11.68
2022-12-20T15:57:25.820Z,11.45
2022-12-20T16:00:02.274Z,12.15
2022-12-20T16:02:31.797Z,12.38
2022-12-20T16:05:09.143Z,13.63
2022-12-20T16:07:36.754Z,13.27
2022-12-20T16:10:05.512Z,13.48
2022-12-20T16:12:54.168Z,13.63
2022-12-20T16:15:50.355Z,14.45
2022-12-20T16:18:52.993Z,14.15
2022-12-20T16:21:51.473Z,13.75
2022-12-20T16:24:20.673Z,14.50
2022-12-20T16:26:49.651Z,15.00
2022-12-20T16:29:17.125Z,14.50
2022-12-20T16:31:44.656Z,15.18
2022-12-20T16:34:17.243Z,14.77
2022-12-20T16:36:44.799Z,15.52
2022-12-20T16:39:12.000Z,17.15
2022-12-20T16:41:41.363Z,15.98
2022-12-20T16:44:16.557Z,15.45
2022-12-20T16:46:43.875Z,15.70
2022-12-20T16:49:19.437Z,16.92
2022-12-20T16:51:48.665Z,16.83
2022-12-20T16:54:21.418Z,16.80
2022-12-20T16:56:57.525Z,19.23
2022-12-20T16:59:25.443Z,20.55
2022-12-20T17:01:55.447Z,22.00
2022-12-20T17:04:23.320Z,17.77
2022-12-20T17:06:50.828Z,18.17
2022-12-20T17:12:04.429Z,22.67
2022-12-20T17:14:31.413Z,19.40
2022-12-20T17:16:58.299Z,17.25
2022-12-20T17:19:25.232Z,17.65
2022-12-20T17:24:36.562Z,19.15
2022-12-20T17:27:03.737Z,17.77
2022-12-20T17:29:31.146Z,18.67
2022-12-20T17:31:58.318Z,18.30
2022-12-20T17:34:28.464Z,19.60
2022-12-20T17:36:57.532Z,20.38
2022-12-20T17:39:25.874Z,20.98
2022-12-20T17:41:54.251Z,21.15
2022-12-20T17:44:26.954Z,21.25
2022-12-20T17:46:55.944Z,21.30
2022-12-20T17:49:23.665Z,20.85
2022-12-20T17:51:51.665Z,21.48
2022-12-20T17:54:28.880Z,22.02
2022-12-20T17:56:57.961Z,22.65
2022-12-20T17:59:25.945Z,22.50
2022-12-20T18:01:53.098Z,22.52
2022-12-20T18:04:20.514Z,24.27
2022-12-20T18:06:48.221Z,21.20
2022-12-20T18:09:18.711Z,22.15
2022-12-20T18:11:46.444Z,20.05
2022-12-20T18:14:14.762Z,21.80
2022-12-20T18:16:41.975Z,19.92
2022-12-20T18:19:15.402Z,21.20
2022-12-20T18:21:42.381Z,20.85
2022-12-20T18:24:15.982Z,21.10
2022-12-20T18:26:45.064Z,21.92
2022-12-20T18:29:12.534Z,23.20
2022-12-20T18:31:39.735Z,23.05
2022-12-20T18:34:06.667Z,21.75
2022-12-20T18:36:36.135Z,22.75
2022-12-20T18:39:05.465Z,23.35
2022-12-20T18:41:32.623Z,22.20
2022-12-20T18:44:05.134Z,23.05
2022-12-20T18:46:32.424Z,27.05
2022-12-20T18:49:00.951Z,27.33
2022-12-20T18:51:36.925Z,28.55
2022-12-20T18:54:06.031Z,28.83
2022-12-20T18:56:35.603Z,28.38
2022-12-20T18:59:10.870Z,27.15
2022-12-20T19:01:40.420Z,30.08
2022-12-20T19:04:08.371Z,29.58
2022-12-20T19:06:36.627Z,28.20
2022-12-20T19:09:06.897Z,28.95
2022-12-20T19:11:34.008Z,27.30
2022-12-20T19:14:01.205Z,28.75
2022-12-20T19:16:32.028Z,28.63
2022-12-20T19:19:00.343Z,29.83
2022-12-20T19:21:30.464Z,29.23
2022-12-20T19:23:59.832Z,31.27
2022-12-20T19:26:28.735Z,55.67
2022-12-20T19:28:57.294Z,66.15
2022-12-20T19:31:30.368Z,56.53
2022-12-20T19:34:10.550Z,35.80
2022-12-20T19:36:43.329Z,32.75
2022-12-20T19:39:17.158Z,30.00
2022-12-20T19:41:54.943Z,33.20
2022-12-20T19:44:31.532Z,31.25
2022-12-20T19:47:06.431Z,29.83
2022-12-20T19:49:35.590Z,29.83
2022-12-20T19:52:02.774Z,35.80
2022-12-20T19:54:29.860Z,33.10
2022-12-20T19:56:57.743Z,38.03
2022-12-20T19:59:25.254Z,36.05
2022-12-20T20:01:52.224Z,39.22
2022-12-20T20:04:19.291Z,50.67
2022-12-20T20:06:46.370Z,34.40
2022-12-20T20:09:13.314Z,35.38
2022-12-20T20:11:40.339Z,37.75
2022-12-20T20:14:09.522Z,39.10
2022-12-20T20:16:37.843Z,41.42
2022-12-20T20:19:05.839Z,47.90
2022-12-20T20:21:36.346Z,32.63
2022-12-20T20:24:03.984Z,27.75
2022-12-20T20:26:31.961Z,24.75
2022-12-20T20:29:01.904Z,23.73
2022-12-20T20:31:29.358Z,24.00
2022-12-20T20:33:58.512Z,23.17
2022-12-20T20:36:25.449Z,24.73
2022-12-20T20:38:52.633Z,24.70
2022-12-20T20:41:20.209Z,23.95
2022-12-20T20:43:47.289Z,24.15
2022-12-20T20:46:15.807Z,26.75
2022-12-20T20:48:43.854Z,25.25
2022-12-20T20:51:11.195Z,25.17
2022-12-20T20:53:38.364Z,24.00
2022-12-20T20:56:07.041Z,23.67
2022-12-20T20:58:34.801Z,24.08
2022-12-20T21:01:03.304Z,22.58
2022-12-20T21:03:31.332Z,23.70
2022-12-20T21:08:45.719Z,22.50
2022-12-20T21:11:13.326Z,19.73
2022-12-20T21:13:40.472Z,19.73
2022-12-20T21:16:14.063Z,17.75
2022-12-20T21:18:41.351Z,18.52
2022-12-20T21:21:10.718Z,18.98
2022-12-20T21:23:39.681Z,18.30
2022-12-20T21:26:07.765Z,18.88
2022-12-20T21:28:36.092Z,17.90
2022-12-20T21:31:05.553Z,18.52
2022-12-20T21:33:32.725Z,19.13
2022-12-20T21:36:01.264Z,19.40
2022-12-20T21:38:28.933Z,21.00
2022-12-20T21:41:11.448Z,21.42
2022-12-20T21:43:38.925Z,19.30
2022-12-20T21:46:11.202Z,20.20
2022-12-20T21:48:39.847Z,20.95
2022-12-20T21:51:16.827Z,21.55
2022-12-20T21:53:46.807Z,20.88
2022-12-20T21:56:15.966Z,20.15
2022-12-20T21:58:43.226Z,21.10
2022-12-20T22:01:14.381Z,22.08
2022-12-20T22:03:41.919Z,21.17
2022-12-20T22:06:08.941Z,19.95
2022-12-20T22:08:36.145Z,19.90
2022-12-20T22:11:06.221Z,18.77
2022-12-20T22:13:40.626Z,18.55
2022-12-20T22:16:14.288Z,18.05
2022-12-20T22:18:42.644Z,17.13
2022-12-20T22:21:13.246Z,16.75
2022-12-20T22:23:40.746Z,17.02
2022-12-20T22:26:11.112Z,16.02
2022-12-20T22:28:39.262Z,14.95
2022-12-20T22:31:10.826Z,15.20
2022-12-20T22:33:39.027Z,15.57
2022-12-20T22:36:06.902Z,15.20
2022-12-20T22:38:35.440Z,14.55
2022-12-20T22:41:11.095Z,15.20
2022-12-20T22:43:39.379Z,14.27
2022-12-20T22:46:06.661Z,14.68
2022-12-20T22:48:33.904Z,14.57
2022-12-20T22:51:01.736Z,13.63
2022-12-20T22:53:28.890Z,15.13
2022-12-20T22:55:56.080Z,15.52
2022-12-20T22:58:23.311Z,13.63
2022-12-20T23:00:50.340Z,13.40
2022-12-20T23:03:17.481Z,17.77
2022-12-20T23:05:56.273Z,15.18
2022-12-20T23:08:24.956Z,12.48
2022-12-20T23:11:10.419Z,13.45
2022-12-20T23:13:57.386Z,12.75
2022-12-20T23:16:27.454Z,21.33
2022-12-20T23:18:56.174Z,23.25
2022-12-20T23:21:41.917Z,28.30
2022-12-20T23:24:09.262Z,27.75
2022-12-20T23:26:37.141Z,31.42
2022-12-20T23:29:07.068Z,36.65
2022-12-20T23:31:34.786Z,33.78
2022-12-20T23:34:01.985Z,21.00
2022-12-20T23:36:29.661Z,17.08
2022-12-20T23:38:57.015Z,17.45
2022-12-20T23:41:24.061Z,15.77
2022-12-20T23:43:51.175Z,16.55
2022-12-20T23:46:19.942Z,14.75
2022-12-20T23:48:47.083Z,15.57
2022-12-20T23:51:14.160Z,15.82
2022-12-20T23:53:41.220Z,15.65
2022-12-20T23:56:10.541Z,15.73
2022-12-20T23:58:37.859Z,15.85
